Time;durP1;ratioP1;P1;durP2;ratioP2;P2;SDS_P1;SDS_P2;PMS_P1;PMS_P2;Temp;Humidity;BMP_temperature;BMP_pressure;BME280_temperature;BME280_humidity;BME280_pressure;Samples;Min_cycle;Max_cycle;Signal;HPM_P1;HPM_P2
2021/08/06 00:00:15;;;;;;;4.80;4.60;;;;;;;17.38;86.37;99925.06;4428092;32;20087;-66
2021/08/06 00:02:41;;;;;;;5.40;5.20;;;;;;;17.38;86.91;99925.06;4415447;32;20464;-67
2021/08/06 00:05:07;;;;;;;4.80;4.60;;;;;;;17.38;86.66;99921.56;4432945;32;20596;-65
2021/08/06 00:07:33;;;;;;;6.30;6.00;;;;;;;17.37;86.76;99922.53;4419428;32;20195;-66
2021/08/06 00:09:58;;;;;;;6.22;5.82;;;;;;;17.39;86.18;99918.75;4421757;32;20090;-65
2021/08/06 00:12:23;;;;;;;5.72;5.43;;;;;;;17.38;86.66;99910.94;4434248;32;20245;-66
2021/08/06 00:14:49;;;;;;;5.05;4.85;;;;;;;17.40;86.02;99917.78;4428684;32;20145;-66
2021/08/06 00:17:14;;;;;;;5.45;5.15;;;;;;;17.40;86.11;99915.16;4418401;32;20640;-65
2021/08/06 00:19:39;;;;;;;4.82;4.62;;;;;;;17.40;86.10;99915.16;4416494;32;20063;-66
2021/08/06 00:22:05;;;;;;;5.35;5.15;;;;;;;17.04;86.14;99853.94;4420028;32;20068;-67
2021/08/06 00:24:30;;;;;;;6.32;6.03;;;;;;;17.35;86.94;99912.06;4419977;31;20597;-65
2021/08/06 00:26:56;;;;;;;5.00;4.80;;;;;;;17.37;85.77;99911.94;4442618;31;20129;-65
2021/08/06 00:29:22;;;;;;;5.57;5.32;;;;;;;17.34;85.84;99916.56;4437632;31;20067;-66
2021/08/06 00:31:47;;;;;;;4.90;4.70;;;;;;;17.29;86.52;99913.47;4439414;32;20545;-66
2021/08/06 00:34:13;;;;;;;4.87;4.68;;;;;;;17.25;87.21;99909.44;4434156;32;20067;-66
2021/08/06 00:36:38;;;;;;;6.72;6.43;;;;;;;17.24;87.22;99910.44;4434791;32;20064;-65
2021/08/06 00:39:03;;;;;;;5.32;5.10;;;;;;;17.22;86.79;99900.94;4438021;32;20071;-66
2021/08/06 00:41:29;;;;;;;6.78;6.37;;;;;;;16.93;86.44;99868.19;4434296;31;20196;-63
2021/08/06 00:43:54;;;;;;;5.10;4.90;;;;;;;17.12;87.59;99893.00;4436983;32;20316;-66
2021/08/06 00:46:20;;;;;;;4.93;4.72;;;;;;;16.01;87.10;99761.81;4435955;31;20647;-67
2021/08/06 00:48:46;;;;;;;5.20;5.00;;;;;;;16.61;87.36;99823.41;4438242;31;21631;-65
2021/08/06 00:51:12;;;;;;;4.90;4.70;;;;;;;17.08;87.43;99897.75;4437481;31;21025;-66
2021/08/06 00:53:38;;;;;;;6.45;6.15;;;;;;;17.10;87.04;99895.81;4433455;31;20094;-66
2021/08/06 00:56:04;;;;;;;4.90;4.70;;;;;;;17.03;87.66;99876.12;4431063;32;20375;-66
2021/08/06 00:58:30;;;;;;;6.57;6.28;;;;;;;17.15;87.71;99895.37;4439687;32;20078;-67
2021/08/06 01:00:55;;;;;;;5.10;4.90;;;;;;;16.47;86.84;99789.41;4424161;32;20068;-66
2021/08/06 01:03:27;;;;;;;5.47;5.20;;;;;;;17.17;86.99;99895.22;4417337;32;20570;-66
2021/08/06 01:06:00;;;;;;;4.70;4.50;;;;;;;17.14;87.41;99899.00;4430431;31;20307;-65
2021/08/06 01:08:33;;;;;;;6.10;5.80;;;;;;;17.00;87.28;99873.78;4466102;31;20060;-65
2021/08/06 01:11:00;;;;;;;4.78;4.57;;;;;;;17.11;86.44;99897.44;4446199;31;20089;-66
2021/08/06 01:13:37;;;;;;;6.10;5.80;;;;;;;17.12;86.10;99891.19;4435096;31;20589;-65
2021/08/06 01:16:03;;;;;;;5.22;4.95;;;;;;;17.11;87.12;99888.66;4440503;31;20507;-65
2021/08/06 01:18:30;;;;;;;4.90;4.70;;;;;;;17.05;87.13;99891.91;4439655;31;20183;-66
2021/08/06 01:20:56;;;;;;;5.35;5.05;;;;;;;17.00;86.83;99888.81;4419673;32;20128;-66
2021/08/06 01:23:31;;;;;;;6.20;5.90;;;;;;;16.95;87.00;99884.78;4426164;32;20928;-67
2021/08/06 01:26:02;;;;;;;5.10;4.90;;;;;;;16.81;86.96;99861.38;4437900;32;20070;-67
2021/08/06 01:28:31;;;;;;;6.50;6.20;;;;;;;16.89;86.85;99876.56;4431487;32;20082;-66
2021/08/06 01:30:56;;;;;;;4.85;4.65;;;;;;;16.89;87.72;99882.69;4424955;32;20075;-66
2021/08/06 01:33:22;;;;;;;5.43;5.12;;;;;;;16.89;86.96;99877.38;4425116;32;20585;-67
2021/08/06 01:35:47;;;;;;;4.65;4.45;;;;;;;16.89;87.38;99869.44;4427938;32;20204;-66
2021/08/06 01:38:13;;;;;;;5.05;4.85;;;;;;;16.92;87.10;99873.66;4434845;31;20699;-66
2021/08/06 01:40:48;;;;;;;6.37;6.07;;;;;;;16.94;87.76;99866.38;4437006;31;20108;-66
2021/08/06 01:43:23;;;;;;;5.00;4.80;;;;;;;16.84;87.28;99845.19;4440396;31;20482;-66
2021/08/06 01:45:51;;;;;;;4.87;4.68;;;;;;;16.98;87.29;99870.44;4432459;32;20194;-66
2021/08/06 01:48:17;;;;;;;4.80;4.60;;;;;;;17.07;87.01;99866.91;4442266;31;20074;-66
2021/08/06 01:50:42;;;;;;;5.55;5.25;;;;;;;17.03;86.73;99862.88;4430433;32;20582;-67
2021/08/06 01:53:10;;;;;;;5.10;4.80;;;;;;;16.99;86.41;99858.84;4440593;32;20094;-65
2021/08/06 01:55:40;;;;;;;6.37;6.07;;;;;;;16.99;87.32;99865.94;4428151;32;20056;-66
2021/08/06 01:58:05;;;;;;;4.75;4.55;;;;;;;16.99;86.25;99861.47;4435780;32;20076;-66
2021/08/06 02:00:31;;;;;;;4.78;4.57;;;;;;;16.98;87.35;99851.00;4431028;31;20826;-63
2021/08/06 02:02:56;;;;;;;5.05;4.85;;;;;;;17.01;86.75;99856.03;4435342;32;20162;-64
2021/08/06 02:05:22;;;;;;;6.82;6.43;;;;;;;17.00;86.68;99854.34;4431540;32;20558;-67
2021/08/06 02:07:47;;;;;;;5.10;4.90;;;;;;;17.01;87.35;99851.56;4433547;32;20132;-65
2021/08/06 02:10:13;;;;;;;4.87;4.68;;;;;;;17.00;87.66;99857.00;4419441;32;21792;-66
2021/08/06 02:12:39;;;;;;;5.00;4.80;;;;;;;17.02;86.87;99858.56;4426210;32;20056;-66
2021/08/06 02:15:05;;;;;;;5.10;4.90;;;;;;;17.06;87.69;99864.37;4425015;31;20841;-66
2021/08/06 02:17:31;;;;;;;4.90;4.70;;;;;;;17.06;86.90;99865.25;4433138;31;20063;-66
2021/08/06 02:19:56;;;;;;;4.95;4.75;;;;;;;16.87;87.85;99829.00;4431637;31;20538;-66
2021/08/06 02:22:22;;;;;;;5.60;5.37;;;;;;;17.05;87.28;99860.91;4435845;32;20139;-67
2021/08/06 02:24:47;;;;;;;5.15;4.95;;;;;;;17.06;86.50;99859.09;4432667;31;20467;-66
2021/08/06 02:27:15;;;;;;;4.90;4.70;;;;;;;15.75;86.15;99662.66;4435608;32;20656;-67
2021/08/06 02:29:40;;;;;;;5.75;5.32;;;;;;;17.09;87.31;99849.03;4424147;31;20144;-66
2021/08/06 02:32:06;;;;;;;5.20;5.00;;;;;;;17.13;87.01;99858.38;4442134;32;20091;-66
2021/08/06 02:34:31;;;;;;;6.53;6.22;;;;;;;17.17;85.99;99852.81;4430410;32;20174;-69
2021/08/06 02:36:58;;;;;;;4.97;4.78;;;;;;;17.18;85.88;99847.38;4418836;32;20513;-66
2021/08/06 02:39:25;;;;;;;5.80;5.53;;;;;;;17.15;87.23;99859.06;4420279;32;20076;-66
2021/08/06 02:41:50;;;;;;;4.75;4.55;;;;;;;17.18;87.21;99854.47;4416400;32;20226;-66
2021/08/06 02:44:15;;;;;;;5.00;4.80;;;;;;;17.15;87.82;99853.78;4422390;32;20067;-66
2021/08/06 02:46:41;;;;;;;5.00;4.80;;;;;;;17.12;88.28;99848.78;4419982;32;20088;-65
2021/08/06 02:49:06;;;;;;;4.93;4.72;;;;;;;17.13;87.39;99845.12;4432386;32;20090;-66
2021/08/06 02:51:32;;;;;;;6.43;6.12;;;;;;;17.08;87.67;99846.56;4437311;32;20079;-67
2021/08/06 02:53:57;;;;;;;4.80;4.60;;;;;;;17.05;87.70;99837.06;4434419;32;20609;-66
2021/08/06 02:56:23;;;;;;;5.00;4.80;;;;;;;17.02;88.67;99847.09;4421063;32;20254;-64
2021/08/06 02:58:48;;;;;;;5.15;4.95;;;;;;;17.01;88.24;99850.75;4435171;32;20063;-66
2021/08/06 03:01:13;;;;;;;5.22;4.80;;;;;;;16.98;88.17;99845.72;4436726;32;20067;-66
2021/08/06 03:03:39;;;;;;;5.80;5.55;;;;;;;16.93;88.42;99839.03;4430956;32;20378;-67
2021/08/06 03:06:04;;;;;;;4.90;4.70;;;;;;;16.89;88.44;99842.13;4438400;32;20621;-66
2021/08/06 03:08:29;;;;;;;6.45;6.15;;;;;;;16.87;88.97;99838.75;4415925;32;20426;-65
2021/08/06 03:10:55;;;;;;;5.53;5.22;;;;;;;16.84;88.65;99829.28;4426902;32;20078;-66
2021/08/06 03:13:20;;;;;;;4.90;4.70;;;;;;;16.83;88.61;99827.59;4425948;32;20533;-68
2021/08/06 03:15:45;;;;;;;4.70;4.50;;;;;;;16.77;89.71;99830.78;4417336;32;21593;-66
2021/08/06 03:18:12;;;;;;;5.07;4.87;;;;;;;16.48;89.67;99778.69;4433431;32;20082;-66
2021/08/06 03:20:37;;;;;;;6.97;6.68;;;;;;;16.71;89.84;99818.13;4428465;32;20389;-67
2021/08/06 03:23:02;;;;;;;4.75;4.55;;;;;;;16.55;89.94;99803.63;4440869;32;20900;-66
2021/08/06 03:25:28;;;;;;;6.53;6.12;;;;;;;16.61;90.66;99812.81;4418859;32;20080;-67
2021/08/06 03:27:56;;;;;;;5.00;4.80;;;;;;;16.61;90.90;99807.53;4417290;32;20520;-65
2021/08/06 03:30:22;;;;;;;5.12;4.90;;;;;;;16.59;91.20;99804.19;4418804;32;20635;-67
2021/08/06 03:32:47;;;;;;;4.87;4.68;;;;;;;16.57;90.94;99803.47;4441742;32;20751;-66
2021/08/06 03:35:13;;;;;;;5.10;4.90;;;;;;;16.59;91.13;99811.28;4431966;32;20600;-66
2021/08/06 03:37:39;;;;;;;5.00;4.80;;;;;;;16.56;90.95;99807.12;4446390;32;20092;-66
2021/08/06 03:40:05;;;;;;;4.90;4.70;;;;;;;16.58;90.70;99799.88;4435384;32;20139;-66
2021/08/06 03:42:30;;;;;;;6.87;6.57;;;;;;;16.57;90.51;99795.53;4421104;32;20086;-66
2021/08/06 03:44:55;;;;;;;4.65;4.45;;;;;;;16.52;90.86;99793.31;4420094;32;20126;-66
2021/08/06 03:47:21;;;;;;;4.72;4.53;;;;;;;16.53;91.35;99794.97;4440917;32;20091;-67
2021/08/06 03:49:46;;;;;;;4.87;4.68;;;;;;;16.53;91.01;99794.16;4427686;31;20088;-66
2021/08/06 03:52:11;;;;;;;4.70;4.50;;;;;;;16.50;91.51;99802.37;4439523;31;20586;-66
2021/08/06 03:54:37;;;;;;;6.35;6.05;;;;;;;16.47;90.92;99794.72;4432522;31;20335;-66
2021/08/06 03:57:03;;;;;;;4.70;4.50;;;;;;;16.51;91.58;99799.56;4441481;31;20462;-66
2021/08/06 03:59:28;;;;;;;6.60;6.30;;;;;;;16.47;90.95;99805.31;4438711;31;20181;-66
2021/08/06 04:01:54;;;;;;;5.03;4.82;;;;;;;16.44;91.94;99800.31;4434884;31;20168;-66
2021/08/06 04:04:19;;;;;;;5.22;4.93;;;;;;;16.45;92.06;99807.25;4429879;31;20336;-66
2021/08/06 04:06:44;;;;;;;5.22;5.03;;;;;;;16.45;91.33;99804.59;4417055;32;20076;-66
2021/08/06 04:09:10;;;;;;;5.07;4.87;;;;;;;16.49;91.29;99803.34;4437990;32;20082;-65
2021/08/06 04:11:35;;;;;;;6.97;6.68;;;;;;;16.53;91.17;99804.75;4420335;32;20430;-66
2021/08/06 04:14:00;;;;;;;4.80;4.60;;;;;;;16.52;91.16;99803.09;4424238;32;20092;-66
2021/08/06 04:16:26;;;;;;;6.22;5.93;;;;;;;16.49;91.49;99804.19;4418150;32;20068;-66
2021/08/06 04:18:51;;;;;;;4.78;4.57;;;;;;;16.53;91.53;99799.44;4415383;32;20091;-67
2021/08/06 04:21:17;;;;;;;4.80;4.60;;;;;;;16.55;91.89;99803.63;4435999;32;20069;-65
2021/08/06 04:23:43;;;;;;;5.00;4.80;;;;;;;16.53;91.43;99804.75;4436140;32;20477;-67
2021/08/06 04:26:08;;;;;;;5.90;5.62;;;;;;;16.52;92.09;99803.09;4416519;32;20539;-66
2021/08/06 04:28:34;;;;;;;6.45;6.15;;;;;;;16.57;91.99;99800.00;4425960;32;20071;-66
2021/08/06 04:31:02;;;;;;;5.00;4.80;;;;;;;16.66;91.29;99802.66;4423297;32;20138;-65
2021/08/06 04:33:28;;;;;;;6.20;5.90;;;;;;;16.64;90.88;99801.94;4436065;32;20078;-66
2021/08/06 04:35:53;;;;;;;4.80;4.60;;;;;;;16.62;91.21;99809.22;4420699;32;20084;-66
2021/08/06 04:38:18;;;;;;;5.37;5.15;;;;;;;16.65;91.64;99805.44;4433563;32;20545;-65
2021/08/06 04:40:44;;;;;;;4.85;4.65;;;;;;;16.68;90.78;99832.47;4424435;32;20080;-66
2021/08/06 04:43:09;;;;;;;4.70;4.50;;;;;;;16.66;91.41;99809.78;4430402;32;20472;-66
2021/08/06 04:45:34;;;;;;;7.28;6.87;;;;;;;16.64;90.85;99809.91;4429921;32;20132;-66
2021/08/06 04:48:03;;;;;;;4.90;4.70;;;;;;;16.65;90.74;99808.09;4422213;32;20068;-66
2021/08/06 04:50:29;;;;;;;4.80;4.60;;;;;;;16.63;90.72;99812.69;4424757;32;20072;-66
2021/08/06 04:52:54;;;;;;;4.80;4.60;;;;;;;16.65;90.64;99811.56;4420408;32;20297;-64
2021/08/06 04:55:20;;;;;;;4.82;4.62;;;;;;;16.49;90.99;99796.22;4431748;32;20665;-63
2021/08/06 04:57:46;;;;;;;4.95;4.75;;;;;;;16.68;91.07;99816.59;4419991;31;20183;-68
2021/08/06 05:00:11;;;;;;;5.00;4.80;;;;;;;16.73;91.03;99816.97;4406237;32;20083;-68
2021/08/06 05:02:37;;;;;;;6.25;5.95;;;;;;;16.77;90.69;99811.41;4420471;32;20084;-66
2021/08/06 05:05:03;;;;;;;4.65;4.45;;;;;;;16.76;90.70;99813.25;4431898;32;20125;-66
2021/08/06 05:07:28;;;;;;;6.50;6.20;;;;;;;16.41;90.94;99756.38;4429473;32;20067;-64
2021/08/06 05:09:54;;;;;;;4.82;4.62;;;;;;;16.80;91.17;99811.13;4413589;32;20172;-64
2021/08/06 05:12:20;;;;;;;4.90;4.70;;;;;;;16.80;90.14;99819.06;4427329;32;20136;-63
2021/08/06 05:14:46;;;;;;;4.90;4.70;;;;;;;16.88;90.28;99801.53;4417737;32;20078;-64
2021/08/06 05:17:11;;;;;;;5.18;4.93;;;;;;;16.86;90.25;99792.06;4423734;32;20079;-64
2021/08/06 05:19:37;;;;;;;6.47;6.18;;;;;;;16.93;89.76;99807.22;4414705;32;20094;-63
2021/08/06 05:22:03;;;;;;;5.05;4.85;;;;;;;17.00;89.74;99809.28;4436071;32;20399;-63
2021/08/06 05:24:28;;;;;;;5.20;5.00;;;;;;;17.08;89.25;99804.97;4420578;32;20094;-64
2021/08/06 05:26:53;;;;;;;5.40;5.10;;;;;;;17.13;89.23;99802.69;4421465;32;20090;-63
2021/08/06 05:29:19;;;;;;;4.82;4.62;;;;;;;17.06;89.32;99787.50;4422288;32;20505;-64
2021/08/06 05:31:44;;;;;;;5.95;5.65;;;;;;;17.26;88.71;99801.53;4412207;32;20083;-64
2021/08/06 05:34:09;;;;;;;5.05;4.85;;;;;;;17.26;89.36;99801.53;4418361;32;20078;-66
2021/08/06 05:36:35;;;;;;;6.75;6.45;;;;;;;17.16;89.21;99785.69;4415748;32;20064;-66
2021/08/06 05:39:00;;;;;;;5.00;4.80;;;;;;;17.30;89.50;99802.94;4420918;32;20569;-66
2021/08/06 05:41:25;;;;;;;6.45;6.15;;;;;;;17.13;89.55;99785.97;4434422;32;20091;-66
2021/08/06 05:43:51;;;;;;;4.60;4.40;;;;;;;17.26;89.37;99807.69;4451005;32;20086;-66
2021/08/06 05:46:16;;;;;;;4.75;4.55;;;;;;;17.25;89.23;99813.16;4421885;32;20152;-65
2021/08/06 05:48:41;;;;;;;5.00;4.80;;;;;;;17.24;88.45;99819.41;4424485;32;20164;-66
2021/08/06 05:51:07;;;;;;;4.90;4.70;;;;;;;17.21;88.50;99817.91;4417057;32;20087;-66
2021/08/06 05:53:32;;;;;;;6.35;6.05;;;;;;;17.22;88.83;99824.03;4419923;32;20078;-66
2021/08/06 05:55:59;;;;;;;4.93;4.72;;;;;;;17.22;88.71;99826.69;4439160;31;20139;-67
2021/08/06 05:58:24;;;;;;;5.75;5.47;;;;;;;16.34;90.02;99716.41;4432539;31;20071;-67
2021/08/06 06:00:50;;;;;;;5.25;5.05;;;;;;;17.22;89.54;99827.53;4432266;32;20732;-66
2021/08/06 06:03:17;;;;;;;4.90;4.70;;;;;;;17.21;89.76;99825.84;4425927;32;20206;-66
2021/08/06 06:05:42;;;;;;;5.28;5.07;;;;;;;17.19;89.44;99833.13;4423756;31;20103;-66
2021/08/06 06:08:07;;;;;;;4.70;4.50;;;;;;;17.30;89.30;99837.44;4434897;32;20145;-66
2021/08/06 06:10:33;;;;;;;6.70;6.40;;;;;;;17.39;89.72;99827.75;4432103;31;20064;-65
2021/08/06 06:12:58;;;;;;;5.12;4.82;;;;;;;17.32;88.33;99828.34;4435660;31;20064;-66
2021/08/06 06:15:23;;;;;;;5.32;5.12;;;;;;;17.40;88.73;99829.41;4432445;31;20421;-67
2021/08/06 06:17:49;;;;;;;5.00;4.80;;;;;;;17.46;88.63;99828.81;4430282;31;20110;-66
2021/08/06 06:20:15;;;;;;;5.07;4.68;;;;;;;17.47;88.54;99836.66;4426813;32;20446;-66
2021/08/06 06:22:41;;;;;;;5.50;5.30;;;;;;;17.59;88.35;99831.16;4427772;32;20368;-66
2021/08/06 06:25:08;;;;;;;4.80;4.60;;;;;;;17.66;88.32;99829.56;4424551;32;20087;-67
2021/08/06 06:27:33;;;;;;;6.95;6.65;;;;;;;17.64;88.80;99834.19;4407255;32;20594;-68
2021/08/06 06:29:59;;;;;;;4.90;4.70;;;;;;;17.77;88.07;99837.34;4419250;32;20081;-68
2021/08/06 06:32:24;;;;;;;4.87;4.68;;;;;;;17.85;87.11;99848.09;4427561;32;20068;-69
2021/08/06 06:34:49;;;;;;;5.00;4.80;;;;;;;17.94;86.76;99844.56;4425071;32;20646;-69
2021/08/06 06:37:15;;;;;;;5.07;4.87;;;;;;;17.80;87.26;99847.69;4419356;32;20087;-69
2021/08/06 06:39:42;;;;;;;5.90;5.60;;;;;;;17.85;88.17;99868.50;4416045;31;20076;-68
2021/08/06 06:42:08;;;;;;;4.95;4.75;;;;;;;17.98;87.26;99846.91;4426637;32;20064;-68
2021/08/06 06:44:33;;;;;;;6.97;6.62;;;;;;;18.02;86.80;99829.69;4418308;31;20067;-67
2021/08/06 06:46:58;;;;;;;5.03;4.82;;;;;;;18.21;86.47;99840.19;4424003;32;20688;-68
2021/08/06 06:49:24;;;;;;;6.28;5.97;;;;;;;18.28;86.77;99848.37;4418889;31;20164;-69
2021/08/06 06:51:49;;;;;;;5.85;5.55;;;;;;;18.38;86.13;99851.84;4435067;31;20647;-67
2021/08/06 06:54:14;;;;;;;5.10;4.90;;;;;;;18.17;85.87;99840.66;4434424;31;20079;-68
2021/08/06 06:56:40;;;;;;;5.80;5.50;;;;;;;18.12;85.76;99847.25;4407689;32;21237;-68
2021/08/06 06:59:05;;;;;;;4.82;4.62;;;;;;;18.05;86.56;99850.66;4431006;32;20072;-68
2021/08/06 07:01:30;;;;;;;6.50;6.20;;;;;;;18.00;87.49;99852.91;4414742;32;20079;-68
2021/08/06 07:03:56;;;;;;;5.00;4.80;;;;;;;17.94;86.77;99855.19;4413103;32;20160;-68
2021/08/06 07:06:21;;;;;;;5.15;4.95;;;;;;;18.00;88.05;99861.72;4430812;32;20075;-68
2021/08/06 07:08:47;;;;;;;5.00;4.80;;;;;;;18.04;87.32;99863.09;4422507;32;20084;-66
2021/08/06 07:11:12;;;;;;;4.78;4.57;;;;;;;17.69;88.11;99819.50;4426536;32;20076;-67
2021/08/06 07:13:38;;;;;;;5.20;4.90;;;;;;;17.97;87.80;99858.53;4434971;32;20549;-66
2021/08/06 07:16:03;;;;;;;6.12;5.82;;;;;;;18.12;87.35;99859.66;4412844;32;20076;-65
2021/08/06 07:18:29;;;;;;;5.90;5.50;;;;;;;18.15;87.65;99867.34;4433977;32;20715;-65
2021/08/06 07:20:54;;;;;;;6.35;6.05;;;;;;;18.10;87.05;99853.69;4413015;32;20463;-66
2021/08/06 07:23:20;;;;;;;5.00;4.80;;;;;;;18.18;86.03;99875.03;4417578;32;20688;-66
2021/08/06 07:25:46;;;;;;;5.20;5.00;;;;;;;18.12;86.86;99857.00;4423903;32;20078;-66
2021/08/06 07:28:11;;;;;;;5.40;5.20;;;;;;;18.35;86.03;99865.41;4430678;32;20087;-67
2021/08/06 07:30:37;;;;;;;4.93;4.72;;;;;;;18.38;86.14;99864.25;4427661;32;20088;-66
2021/08/06 07:33:03;;;;;;;6.68;6.37;;;;;;;17.76;85.27;99740.16;4427311;32;20145;-66
2021/08/06 07:35:32;;;;;;;5.30;5.10;;;;;;;18.69;85.53;99870.03;4413895;32;20084;-66
2021/08/06 07:37:57;;;;;;;6.45;6.15;;;;;;;18.43;84.77;99790.25;4414484;32;20326;-67
2021/08/06 07:40:23;;;;;;;5.30;5.00;;;;;;;19.09;84.67;99877.53;4431791;32;20490;-67
2021/08/06 07:42:50;;;;;;;5.43;5.03;;;;;;;19.46;82.58;99872.94;4423904;32;20068;-66
2021/08/06 07:45:16;;;;;;;5.10;4.90;;;;;;;19.93;81.13;99886.66;4443426;32;20102;-67
2021/08/06 07:47:41;;;;;;;5.30;5.10;;;;;;;19.34;79.95;99672.81;4429108;32;20971;-67
2021/08/06 07:50:07;;;;;;;5.28;5.07;;;;;;;21.06;77.59;99869.38;4420411;32;20154;-67
2021/08/06 07:52:32;;;;;;;5.57;5.28;;;;;;;21.59;76.00;99867.97;4437078;32;20603;-67
2021/08/06 07:54:58;;;;;;;6.65;6.35;;;;;;;22.16;74.01;99868.72;4427598;32;20679;-67
2021/08/06 07:57:24;;;;;;;5.40;5.20;;;;;;;22.11;70.82;99869.25;4417262;32;20448;-67
2021/08/06 07:59:49;;;;;;;5.30;5.10;;;;;;;22.19;71.32;99863.00;4422511;32;20441;-67
2021/08/06 08:02:14;;;;;;;5.55;5.35;;;;;;;22.52;71.17;99865.50;4414530;32;20588;-66
2021/08/06 08:04:40;;;;;;;5.82;5.53;;;;;;;22.44;71.00;99858.38;4416747;31;20079;-67
2021/08/06 08:07:05;;;;;;;5.68;5.37;;;;;;;22.38;71.37;99867.09;4420844;32;20100;-67
2021/08/06 08:09:30;;;;;;;5.25;5.05;;;;;;;21.96;69.07;99857.63;4419429;32;20134;-67
2021/08/06 08:11:56;;;;;;;5.25;5.05;;;;;;;21.56;70.47;99899.50;4417927;32;20071;-65
2021/08/06 08:14:21;;;;;;;5.20;5.00;;;;;;;20.51;70.80;99889.50;4425743;32;20129;-67
2021/08/06 08:16:47;;;;;;;5.60;5.30;;;;;;;19.69;72.21;99929.12;4431385;32;20132;-67
2021/08/06 08:19:13;;;;;;;5.30;5.10;;;;;;;18.95;75.01;99917.97;4419526;32;20597;-66
2021/08/06 08:21:38;;;;;;;5.20;5.00;;;;;;;18.52;75.95;99925.69;4438238;32;20072;-67
2021/08/06 08:24:04;;;;;;;6.87;6.57;;;;;;;18.27;78.28;99929.91;4428895;32;20103;-66
2021/08/06 08:26:29;;;;;;;5.43;4.90;;;;;;;18.15;79.38;99917.81;4436365;32;20065;-65
2021/08/06 08:28:54;;;;;;;6.50;6.20;;;;;;;18.05;79.71;99935.62;4410871;32;20079;-66
2021/08/06 08:31:20;;;;;;;4.93;4.72;;;;;;;18.18;79.76;99936.12;4414321;32;20075;-65
2021/08/06 08:33:45;;;;;;;5.30;5.00;;;;;;;18.31;80.87;99935.75;4419659;32;20074;-65
2021/08/06 08:36:11;;;;;;;5.50;5.30;;;;;;;18.06;80.21;99940.78;4421254;32;20561;-65
2021/08/06 08:38:58;;;;;;;4.85;4.65;;;;;;;18.22;80.92;99937.50;4430189;32;20072;-66
2021/08/06 08:41:23;;;;;;;5.85;5.55;;;;;;;16.98;81.01;99756.44;4429643;31;20493;-65
2021/08/06 08:43:51;;;;;;;5.00;4.80;;;;;;;18.08;80.70;99944.12;4435036;32;20071;-66
2021/08/06 08:46:18;;;;;;;4.80;4.60;;;;;;;18.02;81.29;99957.13;4423741;32;20925;-67
2021/08/06 08:48:44;;;;;;;5.07;4.87;;;;;;;17.88;81.75;99897.38;4421685;32;20087;-65
2021/08/06 08:51:10;;;;;;;4.93;4.72;;;;;;;18.46;80.88;99949.34;4424554;32;20076;-65
2021/08/06 08:53:35;;;;;;;5.22;5.03;;;;;;;18.33;81.34;99945.22;4413851;32;20060;-67
2021/08/06 08:56:01;;;;;;;5.00;4.80;;;;;;;18.49;81.44;99944.59;4417254;32;20071;-67
2021/08/06 08:58:26;;;;;;;6.40;6.10;;;;;;;18.21;80.00;99924.34;4427465;32;20126;-65
2021/08/06 09:00:52;;;;;;;5.10;4.90;;;;;;;18.55;79.46;99945.81;4425519;32;20091;-66
2021/08/06 09:03:38;;;;;;;6.45;6.15;;;;;;;18.61;78.99;99945.22;4412735;32;20091;-66
2021/08/06 09:06:03;;;;;;;5.25;5.05;;;;;;;18.59;78.77;99943.69;4438487;32;20067;-66
2021/08/06 09:08:29;;;;;;;5.32;5.12;;;;;;;18.79;79.71;99939.06;4433805;31;20633;-66
2021/08/06 09:10:54;;;;;;;5.37;5.18;;;;;;;18.82;78.08;99930.81;4420603;32;20608;-67
2021/08/06 09:13:23;;;;;;;4.87;4.68;;;;;;;19.12;79.05;99930.44;4425035;32;20194;-66
2021/08/06 09:15:51;;;;;;;5.40;5.18;;;;;;;19.21;77.54;99920.69;4426578;32;20216;-67
2021/08/06 09:18:23;;;;;;;6.22;5.93;;;;;;;19.63;77.20;99929.78;4421547;32;20080;-65
2021/08/06 09:20:48;;;;;;;5.00;4.80;;;;;;;19.62;75.91;99880.16;4444405;32;20081;-66
2021/08/06 09:23:34;;;;;;;4.90;4.70;;;;;;;20.10;76.42;99927.50;4415047;32;20111;-65
2021/08/06 09:26:00;;;;;;;5.10;4.90;;;;;;;20.10;74.90;99921.34;4423665;32;20068;-66
2021/08/06 09:28:25;;;;;;;5.05;4.85;;;;;;;20.46;74.96;99921.12;4435419;32;20667;-65
2021/08/06 09:30:51;;;;;;;5.50;5.30;;;;;;;20.57;73.69;99928.81;4429315;32;20091;-65
2021/08/06 09:33:17;;;;;;;6.87;6.47;;;;;;;20.47;73.66;99920.97;4426512;32;20076;-66
2021/08/06 09:35:42;;;;;;;5.45;5.25;;;;;;;20.84;73.24;99925.03;4440834;32;20091;-65
2021/08/06 09:38:17;;;;;;;5.62;5.32;;;;;;;20.90;72.68;99921.72;4427072;32;20076;-65
2021/08/06 09:40:43;;;;;;;5.40;5.20;;;;;;;20.70;73.59;99877.72;4442583;32;20089;-65
2021/08/06 09:43:14;;;;;;;5.18;4.97;;;;;;;21.45;72.49;99909.53;4431058;32;20183;-67
2021/08/06 09:45:40;;;;;;;5.13;4.93;;;;;;;21.47;72.31;99907.53;4419959;32;20192;-65
2021/08/06 09:48:08;;;;;;;5.50;5.20;;;;;;;22.01;71.00;99916.69;4435617;32;20103;-66
2021/08/06 09:50:43;;;;;;;5.50;5.30;;;;;;;22.44;70.25;99907.31;4412887;32;20068;-66
2021/08/06 09:53:09;;;;;;;5.30;5.10;;;;;;;21.85;68.81;99754.66;4429427;32;20085;-65
2021/08/06 09:55:36;;;;;;;5.40;5.20;;;;;;;22.95;64.98;99900.59;4419599;32;20148;-65
2021/08/06 09:58:05;;;;;;;5.28;4.97;;;;;;;23.03;66.69;99903.25;4421891;32;20183;-66
2021/08/06 10:00:30;;;;;;;6.00;5.70;;;;;;;23.29;66.02;99917.06;4414361;32;20561;-64
2021/08/06 10:02:56;;;;;;;5.30;5.10;;;;;;;23.08;64.22;99906.22;4434559;32;20132;-65
2021/08/06 10:05:26;;;;;;;7.32;6.93;;;;;;;23.26;65.18;99895.19;4431191;32;20160;-66
2021/08/06 10:07:53;;;;;;;5.75;5.45;;;;;;;23.69;62.43;99904.25;4435771;32;20084;-66
2021/08/06 10:10:23;;;;;;;5.60;5.40;;;;;;;23.54;60.44;99906.09;4428695;32;20099;-66
2021/08/06 10:12:48;;;;;;;5.60;5.30;;;;;;;23.81;61.06;99909.16;4432462;32;20516;-64
2021/08/06 10:15:15;;;;;;;6.62;6.32;;;;;;;23.73;61.12;99899.34;4425148;32;20106;-64
2021/08/06 10:17:40;;;;;;;5.30;5.10;;;;;;;23.74;61.34;99894.84;4431393;32;20078;-65
2021/08/06 10:20:07;;;;;;;6.32;6.03;;;;;;;23.72;62.86;99900.38;4428440;32;20084;-65
2021/08/06 10:22:32;;;;;;;5.82;5.53;;;;;;;23.89;60.28;99898.34;4423409;32;20623;-66
2021/08/06 10:24:58;;;;;;;7.07;6.68;;;;;;;24.04;59.55;99901.03;4425548;31;20075;-66
2021/08/06 10:27:25;;;;;;;5.35;5.15;;;;;;;24.49;59.06;99901.72;4422112;32;20072;-66
2021/08/06 10:30:08;;;;;;;6.47;6.18;;;;;;;24.20;57.67;99898.12;4423956;32;20072;-64
2021/08/06 10:32:34;;;;;;;5.78;5.47;;;;;;;24.27;58.71;99895.50;4416907;32;20360;-66
2021/08/06 10:35:02;;;;;;;7.00;6.70;;;;;;;24.15;58.67;99900.53;4419295;32;20095;-66
2021/08/06 10:37:49;;;;;;;5.80;5.50;;;;;;;23.97;58.51;99894.75;4454659;32;20148;-67
2021/08/06 10:40:47;;;;;;;5.60;5.30;;;;;;;23.23;61.54;99904.41;4444927;31;20191;-66
2021/08/06 10:43:36;;;;;;;5.53;5.30;;;;;;;22.94;62.39;99893.59;4414131;32;20141;-65
2021/08/06 10:46:01;;;;;;;7.07;6.78;;;;;;;22.54;60.70;99922.31;4455160;31;20652;-66
2021/08/06 10:48:43;;;;;;;5.30;5.10;;;;;;;22.57;57.80;99920.13;4437780;31;20181;-65
2021/08/06 10:51:18;;;;;;;5.90;5.60;;;;;;;22.60;58.77;99922.44;4433013;31;20100;-65
2021/08/06 10:53:49;;;;;;;5.30;5.10;;;;;;;22.50;58.39;99921.84;4447340;31;20080;-65
2021/08/06 10:56:17;;;;;;;5.20;5.00;;;;;;;22.65;56.77;99913.88;4452069;31;20089;-66
2021/08/06 10:58:52;;;;;;;5.43;5.22;;;;;;;22.41;57.35;99926.41;4458918;31;20120;-65
2021/08/06 11:01:31;;;;;;;5.30;5.10;;;;;;;22.57;57.32;99941.53;4444873;32;20087;-65
2021/08/06 11:04:06;;;;;;;6.80;6.50;;;;;;;23.05;57.50;99934.19;4442936;32;20065;-65
2021/08/06 11:06:31;;;;;;;5.57;5.35;;;;;;;22.51;56.64;99939.53;4430876;32;20075;-65
2021/08/06 11:08:56;;;;;;;7.00;6.70;;;;;;;22.43;57.17;99932.41;4448552;32;20067;-65
2021/08/06 11:11:53;;;;;;;5.10;4.90;;;;;;;22.27;59.05;99938.69;4436593;32;20224;-64
2021/08/06 11:14:30;;;;;;;5.20;5.00;;;;;;;22.27;58.57;99932.47;4444215;32;20059;-65
2021/08/06 11:17:10;;;;;;;5.50;5.20;;;;;;;22.09;59.87;99936.22;4470281;31;20114;-65
2021/08/06 11:19:55;;;;;;;5.30;5.10;;;;;;;21.87;60.21;99934.28;4422868;32;20363;-65
2021/08/06 11:22:50;;;;;;;5.30;5.10;;;;;;;22.01;59.61;99940.75;4440266;32;20106;-64
2021/08/06 11:25:24;;;;;;;5.18;4.97;;;;;;;21.61;61.12;99931.84;4439445;32;20076;-65
2021/08/06 11:27:54;;;;;;;6.30;6.00;;;;;;;22.04;60.31;99917.19;4427748;32;20211;-65
2021/08/06 11:30:35;;;;;;;5.30;5.10;;;;;;;22.35;59.69;99936.94;4442204;31;20109;-65
2021/08/06 11:33:01;;;;;;;5.60;5.30;;;;;;;22.65;59.05;99936.12;4418773;32;20161;-65